sensor_id;sensor_type;location;lat;lon;timestamp;pressure;altitude;pressure_sealevel;temperature;humidity
54592;BME280;40488;48.558;18.150;2023-04-26T00:00:06;99044.81;;;10.18;63.56
54592;BME280;40488;48.558;18.150;2023-04-26T00:02:38;99044.81;;;10.18;63.45
54592;BME280;40488;48.558;18.150;2023-04-26T00:05:08;99042.28;;;10.15;63.01
54592;BME280;40488;48.558;18.150;2023-04-26T00:07:38;99051.66;;;10.16;62.99
54592;BME280;40488;48.558;18.150;2023-04-26T00:10:09;99045.72;;;10.11;63.28
54592;BME280;40488;48.558;18.150;2023-04-26T00:12:38;99056.75;;;10.16;63.06
54592;BME280;40488;48.558;18.150;2023-04-26T00:15:09;99062.75;;;10.12;62.82
54592;BME280;40488;48.558;18.150;2023-04-26T00:17:38;99072.06;;;10.13;62.60
54592;BME280;40488;48.558;18.150;2023-04-26T00:20:08;99077.16;;;10.13;62.70
54592;BME280;40488;48.558;18.150;2023-04-26T00:22:38;99072.09;;;10.10;62.81
54592;BME280;40488;48.558;18.150;2023-04-26T00:25:09;99065.28;;;10.09;62.75
54592;BME280;40488;48.558;18.150;2023-04-26T00:27:39;99075.47;;;10.09;62.49
54592;BME280;40488;48.558;18.150;2023-04-26T00:30:08;99079.75;;;10.05;62.40
54592;BME280;40488;48.558;18.150;2023-04-26T00:32:37;99077.25;;;10.01;62.53
54592;BME280;40488;48.558;18.150;2023-04-26T00:35:07;99077.28;;;9.98;62.53
54592;BME280;40488;48.558;18.150;2023-04-26T00:37:36;99077.28;;;9.93;62.49
54592;BME280;40488;48.558;18.150;2023-04-26T00:40:06;99073.97;;;9.88;62.80
54592;BME280;40488;48.558;18.150;2023-04-26T00:42:37;99086.72;;;9.88;62.68
54592;BME280;40488;48.558;18.150;2023-04-26T00:45:07;99073.97;;;9.84;62.93
54592;BME280;40488;48.558;18.150;2023-04-26T00:47:36;99077.41;;;9.80;62.52
54592;BME280;40488;48.558;18.150;2023-04-26T00:50:06;99066.38;;;9.81;62.21
54592;BME280;40488;48.558;18.150;2023-04-26T00:52:37;99079.16;;;9.75;62.84
54592;BME280;40488;48.558;18.150;2023-04-26T00:55:08;99082.59;;;9.71;62.61
54592;BME280;40488;48.558;18.150;2023-04-26T00:57:38;99091.13;;;9.61;63.13
54592;BME280;40488;48.558;18.150;2023-04-26T01:00:08;99093.75;;;9.52;63.16
54592;BME280;40488;48.558;18.150;2023-04-26T01:02:38;99099.72;;;9.48;64.05
54592;BME280;40488;48.558;18.150;2023-04-26T01:05:08;99092.94;;;9.43;64.03
54592;BME280;40488;48.558;18.150;2023-04-26T01:07:37;99098.03;;;9.43;63.76
54592;BME280;40488;48.558;18.150;2023-04-26T01:10:06;99098.91;;;9.39;64.04
54592;BME280;40488;48.558;18.150;2023-04-26T01:12:38;99105.69;;;9.36;63.96
54592;BME280;40488;48.558;18.150;2023-04-26T01:15:09;99107.44;;;9.29;64.45
54592;BME280;40488;48.558;18.150;2023-04-26T01:17:38;99110.88;;;9.25;64.25
54592;BME280;40488;48.558;18.150;2023-04-26T01:20:07;99115.13;;;9.20;64.51
54592;BME280;40488;48.558;18.150;2023-04-26T01:22:40;99119.41;;;9.15;64.88
54592;BME280;40488;48.558;18.150;2023-04-26T01:25:11;99117.69;;;9.16;64.71
54592;BME280;40488;48.558;18.150;2023-04-26T01:27:40;99115.16;;;9.14;64.17
54592;BME280;40488;48.558;18.150;2023-04-26T01:30:10;99128.75;;;9.13;64.26
54592;BME280;40488;48.558;18.150;2023-04-26T01:32:39;99125.38;;;9.11;65.09
54592;BME280;40488;48.558;18.150;2023-04-26T01:35:08;99132.16;;;9.09;65.16
54592;BME280;40488;48.558;18.150;2023-04-26T01:37:37;99130.47;;;9.02;64.73
54592;BME280;40488;48.558;18.150;2023-04-26T01:40:08;99140.69;;;8.96;65.12
54592;BME280;40488;48.558;18.150;2023-04-26T01:42:39;99135.59;;;8.99;63.59
54592;BME280;40488;48.558;18.150;2023-04-26T01:45:08;99136.44;;;9.00;63.54
54592;BME280;40488;48.558;18.150;2023-04-26T01:47:48;99137.25;;;9.03;63.93
54592;BME280;40488;48.558;18.150;2023-04-26T01:50:17;99145.72;;;9.05;63.29
54592;BME280;40488;48.558;18.150;2023-04-26T01:52:46;99133.88;;;9.01;63.11
54592;BME280;40488;48.558;18.150;2023-04-26T01:55:16;99135.59;;;8.93;63.23
54592;BME280;40488;48.558;18.150;2023-04-26T01:57:45;99137.28;;;8.94;63.11
54592;BME280;40488;48.558;18.150;2023-04-26T02:00:14;99143.22;;;8.96;63.59
54592;BME280;40488;48.558;18.150;2023-04-26T02:02:43;99139.00;;;8.89;63.54
54592;BME280;40488;48.558;18.150;2023-04-26T02:05:12;99147.50;;;8.85;63.19
54592;BME280;40488;48.558;18.150;2023-04-26T02:07:41;99147.50;;;8.79;63.63
54592;BME280;40488;48.558;18.150;2023-04-26T02:10:10;99153.47;;;8.72;63.45
54592;BME280;40488;48.558;18.150;2023-04-26T02:12:40;99159.38;;;8.74;63.21
54592;BME280;40488;48.558;18.150;2023-04-26T02:15:10;99159.38;;;8.71;63.93
54592;BME280;40488;48.558;18.150;2023-04-26T02:17:40;99161.09;;;8.69;63.34
54592;BME280;40488;48.558;18.150;2023-04-26T02:20:09;99156.00;;;8.61;63.54
54592;BME280;40488;48.558;18.150;2023-04-26T02:22:38;99163.66;;;8.60;63.43
54592;BME280;40488;48.558;18.150;2023-04-26T02:25:07;99167.03;;;8.57;63.85
54592;BME280;40488;48.558;18.150;2023-04-26T02:27:38;99162.81;;;8.49;64.53
54592;BME280;40488;48.558;18.150;2023-04-26T02:30:09;99154.34;;;8.48;63.96
54592;BME280;40488;48.558;18.150;2023-04-26T02:32:39;99154.34;;;8.45;64.19
54592;BME280;40488;48.558;18.150;2023-04-26T02:35:09;99156.06;;;8.42;63.19
54592;BME280;40488;48.558;18.150;2023-04-26T02:37:38;99163.69;;;8.30;63.81
54592;BME280;40488;48.558;18.150;2023-04-26T02:40:08;99157.72;;;8.16;64.28
54592;BME280;40488;48.558;18.150;2023-04-26T02:42:40;99166.16;;;8.02;64.86
54592;BME280;40488;48.558;18.150;2023-04-26T02:45:10;99162.75;;;7.88;65.06
54592;BME280;40488;48.558;18.150;2023-04-26T02:47:39;99163.59;;;7.72;65.84
54592;BME280;40488;48.558;18.150;2023-04-26T02:50:09;99158.50;;;7.68;66.29
54592;BME280;40488;48.558;18.150;2023-04-26T02:52:38;99155.09;;;7.69;65.84
54592;BME280;40488;48.558;18.150;2023-04-26T02:55:07;99164.38;;;7.50;66.06
54592;BME280;40488;48.558;18.150;2023-04-26T02:57:36;99160.94;;;7.36;66.36
54592;BME280;40488;48.558;18.150;2023-04-26T03:00:07;99164.31;;;7.35;66.13
54592;BME280;40488;48.558;18.150;2023-04-26T03:02:39;99149.09;;;7.38;66.14
54592;BME280;40488;48.558;18.150;2023-04-26T03:05:08;99144.84;;;7.32;65.97
54592;BME280;40488;48.558;18.150;2023-04-26T03:07:37;99150.78;;;7.39;65.76
54592;BME280;40488;48.558;18.150;2023-04-26T03:10:07;99147.41;;;7.40;65.06
54592;BME280;40488;48.558;18.150;2023-04-26T03:12:38;99155.00;;;7.41;64.53
54592;BME280;40488;48.558;18.150;2023-04-26T03:15:07;99165.19;;;7.44;64.38
54592;BME280;40488;48.558;18.150;2023-04-26T03:17:40;99171.97;;;7.52;63.75
54592;BME280;40488;48.558;18.150;2023-04-26T03:20:11;99175.41;;;7.60;63.29
54592;BME280;40488;48.558;18.150;2023-04-26T03:22:40;99177.97;;;7.67;61.89
54592;BME280;40488;48.558;18.150;2023-04-26T03:25:09;99182.19;;;7.71;61.64
54592;BME280;40488;48.558;18.150;2023-04-26T03:27:39;99188.13;;;7.76;61.68
54592;BME280;40488;48.558;18.150;2023-04-26T03:30:09;99194.94;;;7.77;60.93
54592;BME280;40488;48.558;18.150;2023-04-26T03:32:40;99186.44;;;7.72;61.52
54592;BME280;40488;48.558;18.150;2023-04-26T03:35:09;99194.94;;;7.77;61.24
54592;BME280;40488;48.558;18.150;2023-04-26T03:37:38;99192.41;;;7.82;61.43
54592;BME280;40488;48.558;18.150;2023-04-26T03:40:11;99206.78;;;7.81;60.85
54592;BME280;40488;48.558;18.150;2023-04-26T03:42:40;99207.59;;;7.76;60.99
54592;BME280;40488;48.558;18.150;2023-04-26T03:45:09;99205.91;;;7.76;61.18
54592;BME280;40488;48.558;18.150;2023-04-26T03:47:38;99201.66;;;7.69;61.30
54592;BME280;40488;48.558;18.150;2023-04-26T03:50:10;99215.19;;;7.67;61.14
54592;BME280;40488;48.558;18.150;2023-04-26T03:52:38;99210.94;;;7.61;61.17
54592;BME280;40488;48.558;18.150;2023-04-26T03:55:08;99217.72;;;7.61;61.94
54592;BME280;40488;48.558;18.150;2023-04-26T03:57:38;99221.97;;;7.66;61.43
54592;BME280;40488;48.558;18.150;2023-04-26T04:00:08;99220.28;;;7.68;61.10
54592;BME280;40488;48.558;18.150;2023-04-26T04:02:42;99225.38;;;7.71;61.38
54592;BME280;40488;48.558;18.150;2023-04-26T04:05:21;99234.69;;;7.80;61.68
54592;BME280;40488;48.558;18.150;2023-04-26T04:07:51;99237.28;;;7.84;61.36
54592;BME280;40488;48.558;18.150;2023-04-26T04:10:20;99241.53;;;7.87;61.04
54592;BME280;40488;48.558;18.150;2023-04-26T04:12:50;99242.34;;;7.87;60.89
54592;BME280;40488;48.558;18.150;2023-04-26T04:15:19;99245.75;;;7.89;60.84
54592;BME280;40488;48.558;18.150;2023-04-26T04:17:49;99242.38;;;7.93;60.72
54592;BME280;40488;48.558;18.150;2023-04-26T04:20:18;99250.88;;;8.07;60.21
54592;BME280;40488;48.558;18.150;2023-04-26T04:22:49;99255.16;;;8.13;61.07
54592;BME280;40488;48.558;18.150;2023-04-26T04:25:19;99257.69;;;8.18;61.32
54592;BME280;40488;48.558;18.150;2023-04-26T04:27:49;99261.06;;;8.20;61.06
54592;BME280;40488;48.558;18.150;2023-04-26T04:30:19;99267.84;;;8.24;61.34
54592;BME280;40488;48.558;18.150;2023-04-26T04:32:48;99261.91;;;8.23;61.50
54592;BME280;40488;48.558;18.150;2023-04-26T04:35:17;99272.16;;;8.28;61.82
54592;BME280;40488;48.558;18.150;2023-04-26T04:37:48;99278.06;;;8.33;61.43
54592;BME280;40488;48.558;18.150;2023-04-26T04:40:18;99270.44;;;8.40;61.71
54592;BME280;40488;48.558;18.150;2023-04-26T04:42:48;99276.41;;;8.53;61.39
54592;BME280;40488;48.558;18.150;2023-04-26T04:45:19;99277.25;;;8.58;61.58
54592;BME280;40488;48.558;18.150;2023-04-26T04:47:51;99284.91;;;8.61;60.94
54592;BME280;40488;48.558;18.150;2023-04-26T04:50:20;99280.66;;;8.64;60.86
54592;BME280;40488;48.558;18.150;2023-04-26T04:52:51;99278.97;;;8.69;61.61
54592;BME280;40488;48.558;18.150;2023-04-26T04:55:21;99281.50;;;8.86;60.32
54592;BME280;40488;48.558;18.150;2023-04-26T04:57:51;99283.19;;;8.84;61.41
54592;BME280;40488;48.558;18.150;2023-04-26T05:00:20;99296.78;;;8.94;61.35
54592;BME280;40488;48.558;18.150;2023-04-26T05:02:55;99291.69;;;9.04;60.87
54592;BME280;40488;48.558;18.150;2023-04-26T05:05:26;99296.75;;;9.07;60.58
54592;BME280;40488;48.558;18.150;2023-04-26T05:07:57;99294.19;;;9.22;60.66
54592;BME280;40488;48.558;18.150;2023-04-26T05:10:26;99300.94;;;9.31;61.05
54592;BME280;40488;48.558;18.150;2023-04-26T05:12:55;99302.66;;;9.39;60.88
54592;BME280;40488;48.558;18.150;2023-04-26T05:15:24;99311.13;;;9.44;61.27
54592;BME280;40488;48.558;18.150;2023-04-26T05:17:54;99306.00;;;9.58;60.79
54592;BME280;40488;48.558;18.150;2023-04-26T05:20:24;99300.03;;;9.64;59.64
54592;BME280;40488;48.558;18.150;2023-04-26T05:22:54;99301.66;;;9.81;59.71
54592;BME280;40488;48.558;18.150;2023-04-26T05:25:25;99295.69;;;9.84;59.02
54592;BME280;40488;48.558;18.150;2023-04-26T05:28:03;99304.94;;;10.06;57.95
54592;BME280;40488;48.558;18.150;2023-04-26T05:30:38;99298.13;;;10.08;57.37
54592;BME280;40488;48.558;18.150;2023-04-26T05:33:19;99304.97;;;10.03;57.88
54592;BME280;40488;48.558;18.150;2023-04-26T05:36:07;99305.78;;;10.11;57.83
54592;BME280;40488;48.558;18.150;2023-04-26T05:38:37;99306.63;;;10.19;57.24
54592;BME280;40488;48.558;18.150;2023-04-26T05:41:07;99314.22;;;10.31;57.20
54592;BME280;40488;48.558;18.150;2023-04-26T05:43:36;99316.66;;;10.49;56.64
54592;BME280;40488;48.558;18.150;2023-04-26T05:46:05;99309.81;;;10.54;56.58
54592;BME280;40488;48.558;18.150;2023-04-26T05:48:34;99314.00;;;10.64;56.55
54592;BME280;40488;48.558;18.150;2023-04-26T05:51:04;99318.13;;;10.81;56.60
54592;BME280;40488;48.558;18.150;2023-04-26T05:53:33;99319.69;;;11.00;56.01
54592;BME280;40488;48.558;18.150;2023-04-26T05:56:04;99316.16;;;11.13;55.24
54592;BME280;40488;48.558;18.150;2023-04-26T05:58:37;99316.13;;;11.16;54.23
54592;BME280;40488;48.558;18.150;2023-04-26T06:01:06;99317.81;;;11.17;53.41
54592;BME280;40488;48.558;18.150;2023-04-26T06:03:35;99315.28;;;11.17;53.10
54592;BME280;40488;48.558;18.150;2023-04-26T06:06:04;99328.81;;;11.26;53.27
54592;BME280;40488;48.558;18.150;2023-04-26T06:08:37;99330.34;;;11.42;53.33
54592;BME280;40488;48.558;18.150;2023-04-26T06:11:06;99332.00;;;11.48;52.69
54592;BME280;40488;48.558;18.150;2023-04-26T06:13:34;99327.56;;;11.68;52.23
54592;BME280;40488;48.558;18.150;2023-04-26T06:16:07;99326.69;;;11.71;51.79
54592;BME280;40488;48.558;18.150;2023-04-26T06:18:36;99330.19;;;11.61;50.82
54592;BME280;40488;48.558;18.150;2023-04-26T06:21:06;99336.22;;;11.52;50.23
54592;BME280;40488;48.558;18.150;2023-04-26T06:23:36;99337.91;;;11.53;50.23
54592;BME280;40488;48.558;18.150;2023-04-26T06:26:04;99337.75;;;11.73;50.06
54592;BME280;40488;48.558;18.150;2023-04-26T06:28:33;99338.56;;;11.78;49.44
54592;BME280;40488;48.558;18.150;2023-04-26T06:31:02;99336.00;;;11.76;49.77
54592;BME280;40488;48.558;18.150;2023-04-26T06:33:32;99331.81;;;11.69;49.29
54592;BME280;40488;48.558;18.150;2023-04-26T06:36:01;99340.31;;;11.73;49.76
54592;BME280;40488;48.558;18.150;2023-04-26T06:38:30;99336.03;;;11.73;48.98
54592;BME280;40488;48.558;18.150;2023-04-26T06:40:59;99337.69;;;11.77;49.17
54592;BME280;40488;48.558;18.150;2023-04-26T06:43:27;99334.31;;;11.75;49.48
54592;BME280;40488;48.558;18.150;2023-04-26T06:46:00;99343.34;;;12.03;49.50
54592;BME280;40488;48.558;18.150;2023-04-26T06:48:30;99340.03;;;11.95;48.41
54592;BME280;40488;48.558;18.150;2023-04-26T06:51:04;99344.41;;;11.87;49.07
54592;BME280;40488;48.558;18.150;2023-04-26T06:53:34;99332.28;;;12.01;48.68
54592;BME280;40488;48.558;18.150;2023-04-26T06:56:04;99333.88;;;12.12;48.37
54592;BME280;40488;48.558;18.150;2023-04-26T06:58:32;99338.22;;;12.06;47.95
54592;BME280;40488;48.558;18.150;2023-04-26T07:01:01;99338.88;;;12.21;47.80
54592;BME280;40488;48.558;18.150;2023-04-26T07:03:30;99340.41;;;12.35;47.75
54592;BME280;40488;48.558;18.150;2023-04-26T07:06:01;99348.03;;;12.37;47.55
54592;BME280;40488;48.558;18.150;2023-04-26T07:08:30;99358.91;;;12.54;47.77
54592;BME280;40488;48.558;18.150;2023-04-26T07:10:59;99354.47;;;12.65;47.31
54592;BME280;40488;48.558;18.150;2023-04-26T07:13:28;99359.44;;;12.75;46.69
54592;BME280;40488;48.558;18.150;2023-04-26T07:15:57;99360.69;;;12.47;46.39
54592;BME280;40488;48.558;18.150;2023-04-26T07:18:26;99354.91;;;12.35;46.42
54592;BME280;40488;48.558;18.150;2023-04-26T07:20:55;99358.53;;;12.19;46.38
54592;BME280;40488;48.558;18.150;2023-04-26T07:23:25;99363.53;;;12.26;47.11
54592;BME280;40488;48.558;18.150;2023-04-26T07:25:54;99357.41;;;12.38;47.51
54592;BME280;40488;48.558;18.150;2023-04-26T07:28:24;99366.97;;;12.25;47.74
54592;BME280;40488;48.558;18.150;2023-04-26T07:30:52;99367.91;;;12.18;48.09
54592;BME280;40488;48.558;18.150;2023-04-26T07:33:21;99365.91;;;12.40;47.68
54592;BME280;40488;48.558;18.150;2023-04-26T07:35:53;99363.91;;;12.60;47.14
54592;BME280;40488;48.558;18.150;2023-04-26T07:38:24;99365.44;;;12.73;46.86
54592;BME280;40488;48.558;18.150;2023-04-26T07:40:54;99374.78;;;12.77;45.99
54592;BME280;40488;48.558;18.150;2023-04-26T07:43:22;99367.09;;;12.78;45.54
54592;BME280;40488;48.558;18.150;2023-04-26T07:45:51;99366.38;;;12.69;45.65
54592;BME280;40488;48.558;18.150;2023-04-26T07:48:20;99372.22;;;12.77;45.50
54592;BME280;40488;48.558;18.150;2023-04-26T07:50:49;99377.59;;;12.59;45.11
54592;BME280;40488;48.558;18.150;2023-04-26T07:53:18;99369.72;;;12.72;45.03
54592;BME280;40488;48.558;18.150;2023-04-26T07:55:49;99373.81;;;12.84;45.27
54592;BME280;40488;48.558;18.150;2023-04-26T07:58:18;99374.16;;;13.18;45.91
54592;BME280;40488;48.558;18.150;2023-04-26T08:00:47;99375.84;;;13.20;44.96
54592;BME280;40488;48.558;18.150;2023-04-26T08:03:17;99371.50;;;13.25;44.21
54592;BME280;40488;48.558;18.150;2023-04-26T08:05:46;99372.50;;;13.15;43.47
54592;BME280;40488;48.558;18.150;2023-04-26T08:08:16;99371.41;;;13.31;43.67
54592;BME280;40488;48.558;18.150;2023-04-26T08:10:45;99363.13;;;13.63;43.86
54592;BME280;40488;48.558;18.150;2023-04-26T08:13:15;99363.22;;;14.03;43.39
54592;BME280;40488;48.558;18.150;2023-04-26T08:15:44;99362.63;;;14.33;42.52
54592;BME280;40488;48.558;18.150;2023-04-26T08:18:12;99360.50;;;14.53;42.14
54592;BME280;40488;48.558;18.150;2023-04-26T08:20:42;99362.38;;;14.45;41.38
54592;BME280;40488;48.558;18.150;2023-04-26T08:23:10;99357.31;;;13.99;40.32
54592;BME280;40488;48.558;18.150;2023-04-26T08:25:41;99367.22;;;13.75;40.52
54592;BME280;40488;48.558;18.150;2023-04-26T08:28:11;99362.09;;;13.75;40.64
54592;BME280;40488;48.558;18.150;2023-04-26T08:30:42;99366.47;;;14.11;41.25
54592;BME280;40488;48.558;18.150;2023-04-26T08:33:11;99369.47;;;14.34;42.23
54592;BME280;40488;48.558;18.150;2023-04-26T08:35:39;99366.31;;;14.20;41.89
54592;BME280;40488;48.558;18.150;2023-04-26T08:38:09;99367.31;;;14.11;41.23
54592;BME280;40488;48.558;18.150;2023-04-26T08:40:37;99364.56;;;14.22;40.66
54592;BME280;40488;48.558;18.150;2023-04-26T08:43:10;99374.19;;;14.52;41.35
54592;BME280;40488;48.558;18.150;2023-04-26T08:45:40;99371.69;;;14.88;41.08
54592;BME280;40488;48.558;18.150;2023-04-26T08:48:10;99360.75;;;15.15;39.44
54592;BME280;40488;48.558;18.150;2023-04-26T08:50:43;99373.78;;;15.07;39.70
54592;BME280;40488;48.558;18.150;2023-04-26T08:53:13;99383.25;;;15.07;39.46
54592;BME280;40488;48.558;18.150;2023-04-26T08:55:47;99368.47;;;14.80;39.61
54592;BME280;40488;48.558;18.150;2023-04-26T08:58:16;99380.19;;;14.53;39.56
54592;BME280;40488;48.558;18.150;2023-04-26T09:00:45;99375.84;;;14.13;40.08
54592;BME280;40488;48.558;18.150;2023-04-26T09:03:16;99385.22;;;13.70;40.71
54592;BME280;40488;48.558;18.150;2023-04-26T09:05:45;99391.47;;;13.56;41.35
54592;BME280;40488;48.558;18.150;2023-04-26T09:08:15;99382.50;;;13.30;41.26
54592;BME280;40488;48.558;18.150;2023-04-26T09:10:44;99393.69;;;13.26;41.91
54592;BME280;40488;48.558;18.150;2023-04-26T09:13:13;99390.81;;;13.44;42.20
54592;BME280;40488;48.558;18.150;2023-04-26T09:15:42;99388.56;;;13.75;42.15
54592;BME280;40488;48.558;18.150;2023-04-26T09:18:20;99389.53;;;13.70;41.59
54592;BME280;40488;48.558;18.150;2023-04-26T09:21:02;99396.63;;;13.54;41.49
54592;BME280;40488;48.558;18.150;2023-04-26T09:23:32;99394.03;;;13.56;40.67
54592;BME280;40488;48.558;18.150;2023-04-26T09:26:15;99388.88;;;13.57;39.96
54592;BME280;40488;48.558;18.150;2023-04-26T09:28:45;99366.91;;;13.90;39.42
54592;BME280;40488;48.558;18.150;2023-04-26T09:31:37;99382.44;;;13.84;39.50
54592;BME280;40488;48.558;18.150;2023-04-26T09:34:08;99388.63;;;13.71;40.40
54592;BME280;40488;48.558;18.150;2023-04-26T09:36:49;99389.72;;;13.59;40.56
54592;BME280;40488;48.558;18.150;2023-04-26T09:39:32;99398.53;;;13.41;41.20
54592;BME280;40488;48.558;18.150;2023-04-26T09:42:02;99394.56;;;13.25;41.29
54592;BME280;40488;48.558;18.150;2023-04-26T09:44:31;99397.31;;;13.13;42.06
54592;BME280;40488;48.558;18.150;2023-04-26T09:47:02;99399.97;;;13.07;42.51
54592;BME280;40488;48.558;18.150;2023-04-26T09:49:43;99387.25;;;12.98;42.34
54592;BME280;40488;48.558;18.150;2023-04-26T09:52:13;99393.22;;;12.99;41.76
54592;BME280;40488;48.558;18.150;2023-04-26T09:54:44;99394.03;;;13.02;41.43
54592;BME280;40488;48.558;18.150;2023-04-26T09:57:15;99392.00;;;13.25;41.50
54592;BME280;40488;48.558;18.150;2023-04-26T09:59:46;99387.47;;;13.41;41.68
54592;BME280;40488;48.558;18.150;2023-04-26T10:02:18;99390.84;;;13.43;41.19
54592;BME280;40488;48.558;18.150;2023-04-26T10:04:51;99393.41;;;13.41;41.28
54592;BME280;40488;48.558;18.150;2023-04-26T10:07:21;99385.72;;;13.41;40.68
54592;BME280;40488;48.558;18.150;2023-04-26T10:09:51;99390.19;;;13.30;39.97
54592;BME280;40488;48.558;18.150;2023-04-26T10:12:22;99380.81;;;13.31;40.27
54592;BME280;40488;48.558;18.150;2023-04-26T10:14:51;99385.47;;;13.06;38.30
54592;BME280;40488;48.558;18.150;2023-04-26T10:17:20;99382.91;;;13.03;38.07
54592;BME280;40488;48.558;18.150;2023-04-26T10:19:53;99389.94;;;12.92;38.32
54592;BME280;40488;48.558;18.150;2023-04-26T10:22:26;99394.28;;;12.84;38.89
54592;BME280;40488;48.558;18.150;2023-04-26T10:24:56;99391.84;;;12.78;38.76
54592;BME280;40488;48.558;18.150;2023-04-26T10:30:16;99375.59;;;12.79;38.31
54592;BME280;40488;48.558;18.150;2023-04-26T10:35:27;99388.09;;;12.99;38.50
54592;BME280;40488;48.558;18.150;2023-04-26T10:38:11;99389.22;;;13.37;38.81
54592;BME280;40488;48.558;18.150;2023-04-26T10:40:42;99384.66;;;13.55;38.18
54592;BME280;40488;48.558;18.150;2023-04-26T10:43:26;99389.66;;;13.61;37.85
54592;BME280;40488;48.558;18.150;2023-04-26T10:45:55;99388.84;;;13.60;37.24
54592;BME280;40488;48.558;18.150;2023-04-26T10:48:29;99386.25;;;13.62;38.19
54592;BME280;40488;48.558;18.150;2023-04-26T10:51:11;99388.16;;;13.51;38.22
54592;BME280;40488;48.558;18.150;2023-04-26T10:53:57;99395.13;;;13.42;38.59
54592;BME280;40488;48.558;18.150;2023-04-26T10:59:21;99390.19;;;13.30;38.01
54592;BME280;40488;48.558;18.150;2023-04-26T11:02:09;99382.28;;;13.44;38.24
54592;BME280;40488;48.558;18.150;2023-04-26T11:04:49;99378.50;;;13.63;37.72
54592;BME280;40488;48.558;18.150;2023-04-26T11:07:34;99374.28;;;13.61;35.54
54592;BME280;40488;48.558;18.150;2023-04-26T11:10:07;99378.41;;;13.69;35.56
54592;BME280;40488;48.558;18.150;2023-04-26T11:12:40;99374.19;;;13.67;34.91
54592;BME280;40488;48.558;18.150;2023-04-26T11:15:11;99371.56;;;13.70;35.35
54592;BME280;40488;48.558;18.150;2023-04-26T11:17:40;99365.38;;;14.24;35.60
54592;BME280;40488;48.558;18.150;2023-04-26T11:20:15;99367.88;;;14.67;35.96
54592;BME280;40488;48.558;18.150;2023-04-26T11:22:45;99376.66;;;14.57;35.57
54592;BME280;40488;48.558;18.150;2023-04-26T11:25:14;99367.56;;;14.42;36.00
54592;BME280;40488;48.558;18.150;2023-04-26T11:27:42;99374.50;;;14.37;37.03
54592;BME280;40488;48.558;18.150;2023-04-26T11:30:12;99383.63;;;14.52;37.28
54592;BME280;40488;48.558;18.150;2023-04-26T11:32:41;99384.34;;;14.58;37.64
54592;BME280;40488;48.558;18.150;2023-04-26T11:35:10;99376.97;;;14.82;37.88
54592;BME280;40488;48.558;18.150;2023-04-26T11:37:39;99377.72;;;15.22;37.90
54592;BME280;40488;48.558;18.150;2023-04-26T11:40:11;99364.44;;;15.72;37.41
54592;BME280;40488;48.558;18.150;2023-04-26T11:42:40;99374.16;;;15.93;36.31
54592;BME280;40488;48.558;18.150;2023-04-26T11:45:09;99378.25;;;16.00;36.06
54592;BME280;40488;48.558;18.150;2023-04-26T11:47:39;99366.69;;;15.86;35.81
54592;BME280;40488;48.558;18.150;2023-04-26T11:50:08;99372.38;;;15.65;35.21
54592;BME280;40488;48.558;18.150;2023-04-26T11:52:37;99384.00;;;15.47;35.19
54592;BME280;40488;48.558;18.150;2023-04-26T11:55:09;99371.03;;;15.50;34.64
54592;BME280;40488;48.558;18.150;2023-04-26T11:57:39;99370.66;;;15.96;35.53
54592;BME280;40488;48.558;18.150;2023-04-26T12:00:09;99378.13;;;16.36;35.26
54592;BME280;40488;48.558;18.150;2023-04-26T12:02:45;99386.91;;;16.87;35.96
54592;BME280;40488;48.558;18.150;2023-04-26T12:05:23;99377.00;;;17.01;35.93
54592;BME280;40488;48.558;18.150;2023-04-26T12:07:54;99384.28;;;16.89;35.49
54592;BME280;40488;48.558;18.150;2023-04-26T12:10:27;99390.00;;;16.10;34.30
54592;BME280;40488;48.558;18.150;2023-04-26T12:12:58;99393.53;;;15.42;34.59
54592;BME280;40488;48.558;18.150;2023-04-26T12:15:29;99388.00;;;14.87;34.44
54592;BME280;40488;48.558;18.150;2023-04-26T12:18:00;99397.34;;;14.51;34.88
54592;BME280;40488;48.558;18.150;2023-04-26T12:20:35;99407.75;;;14.45;34.76
54592;BME280;40488;48.558;18.150;2023-04-26T12:23:05;99401.66;;;14.50;35.12
54592;BME280;40488;48.558;18.150;2023-04-26T12:25:35;99403.00;;;14.66;35.14
54592;BME280;40488;48.558;18.150;2023-04-26T12:28:08;99406.09;;;14.81;36.06
54592;BME280;40488;48.558;18.150;2023-04-26T12:30:39;99395.78;;;14.84;35.64
54592;BME280;40488;48.558;18.150;2023-04-26T12:33:08;99403.53;;;14.82;35.92
54592;BME280;40488;48.558;18.150;2023-04-26T12:35:45;99400.41;;;15.05;35.58
54592;BME280;40488;48.558;18.150;2023-04-26T12:38:14;99394.28;;;15.47;36.22
54592;BME280;40488;48.558;18.150;2023-04-26T12:40:44;99400.50;;;15.37;35.48
54592;BME280;40488;48.558;18.150;2023-04-26T12:43:14;99383.09;;;15.13;35.76
54592;BME280;40488;48.558;18.150;2023-04-26T12:45:43;99385.00;;;15.05;35.98
54592;BME280;40488;48.558;18.150;2023-04-26T12:48:12;99387.88;;;14.91;35.90
54592;BME280;40488;48.558;18.150;2023-04-26T12:50:42;99399.50;;;14.70;35.50
54592;BME280;40488;48.558;18.150;2023-04-26T12:53:12;99400.84;;;14.48;35.81
54592;BME280;40488;48.558;18.150;2023-04-26T12:55:41;99396.06;;;14.29;35.85
54592;BME280;40488;48.558;18.150;2023-04-26T12:58:11;99411.63;;;14.23;36.33
54592;BME280;40488;48.558;18.150;2023-04-26T13:00:41;99404.28;;;14.03;36.30
54592;BME280;40488;48.558;18.150;2023-04-26T13:03:11;99415.31;;;14.06;36.82
54592;BME280;40488;48.558;18.150;2023-04-26T13:05:41;99408.91;;;14.30;37.19
54592;BME280;40488;48.558;18.150;2023-04-26T13:08:10;99414.91;;;14.28;37.12
54592;BME280;40488;48.558;18.150;2023-04-26T13:10:39;99410.94;;;14.13;36.13
54592;BME280;40488;48.558;18.150;2023-04-26T13:13:08;99405.91;;;14.07;36.38
54592;BME280;40488;48.558;18.150;2023-04-26T13:15:38;99412.66;;;14.11;36.56
54592;BME280;40488;48.558;18.150;2023-04-26T13:18:07;99405.69;;;14.19;36.61